Time;durP1;ratioP1;P1;durP2;ratioP2;P2;SDS_P1;SDS_P2;PMS_P1;PMS_P2;Temp;Humidity;BMP_temperature;BMP_pressure;BME280_temperature;BME280_humidity;BME280_pressure;Samples;Min_cycle;Max_cycle;Signal;HPM_P1;HPM_P2
2022/10/14 00:00:27;;;;;;;0.00;0.00;;;;;;;;;;1740914;28;20238;-70
2022/10/14 00:01:21;;;;;;;0.00;0.00;;;;;;;;;;1740923;28;20207;-69
2022/10/14 00:02:12;;;;;;;0.00;0.00;;;;;;;;;;1740364;28;20261;-69
2022/10/14 00:03:03;;;;;;;0.00;0.00;;;;;;;;;;1740784;28;20222;-69
2022/10/14 00:03:55;;;;;;;0.00;0.00;;;;;;;;;;1740699;28;20199;-69
2022/10/14 00:04:46;;;;;;;0.00;0.00;;;;;;;;;;1740646;28;20681;-69
2022/10/14 00:05:40;;;;;;;0.00;0.00;;;;;;;;;;1740953;28;20241;-69
2022/10/14 00:06:32;;;;;;;0.00;0.00;;;;;;;;;;1740808;28;20322;-69
2022/10/14 00:07:24;;;;;;;0.00;0.00;;;;;;;;;;1740749;28;20213;-69
2022/10/14 00:08:15;;;;;;;0.00;0.00;;;;;;;;;;1741089;28;20322;-70
2022/10/14 00:09:08;;;;;;;0.00;0.00;;;;;;;;;;1740417;28;20594;-69
2022/10/14 00:10:02;;;;;;;0.00;0.00;;;;;;;;;;1740680;28;20647;-69
2022/10/14 00:10:54;;;;;;;0.00;0.00;;;;;;;;;;1740653;28;20256;-70
2022/10/14 00:11:45;;;;;;;0.00;0.00;;;;;;;;;;1740774;28;20235;-70
2022/10/14 00:12:37;;;;;;;0.00;0.00;;;;;;;;;;1740688;28;20198;-70
2022/10/14 00:13:28;;;;;;;0.00;0.00;;;;;;;;;;1740545;28;20247;-70
2022/10/14 00:14:21;;;;;;;0.00;0.00;;;;;;;;;;1740925;28;20532;-70
2022/10/14 00:15:12;;;;;;;0.00;0.00;;;;;;;;;;1740788;28;20245;-70
2022/10/14 00:16:05;;;;;;;0.00;0.00;;;;;;;;;;1741027;28;20260;-70
2022/10/14 00:16:56;;;;;;;0.00;0.00;;;;;;;;;;1740431;28;20238;-70
2022/10/14 00:17:48;;;;;;;0.00;0.00;;;;;;;;;;1740869;28;20218;-70
2022/10/14 00:18:39;;;;;;;0.00;0.00;;;;;;;;;;1740415;28;20245;-70
2022/10/14 00:19:31;;;;;;;0.00;0.00;;;;;;;;;;1740893;28;20245;-70
2022/10/14 00:20:22;;;;;;;0.00;0.00;;;;;;;;;;1739604;28;20230;-70
2022/10/14 00:21:13;;;;;;;0.00;0.00;;;;;;;;;;1737862;28;20206;-69
2022/10/14 00:22:05;;;;;;;0.00;0.00;;;;;;;;;;1742279;28;20221;-69
2022/10/14 00:22:56;;;;;;;0.00;0.00;;;;;;;;;;1743264;28;20202;-69
2022/10/14 00:23:48;;;;;;;0.00;0.00;;;;;;;;;;1742696;28;20198;-69
2022/10/14 00:24:39;;;;;;;0.00;0.00;;;;;;;;;;1747553;28;20211;-69
2022/10/14 00:25:37;;;;;;;0.00;0.00;;;;;;;;;;1747738;28;20589;-69
2022/10/14 00:26:29;;;;;;;0.00;0.00;;;;;;;;;;1747854;28;20233;-69
2022/10/14 00:27:21;;;;;;;0.00;0.00;;;;;;;;;;1740213;28;20210;-69
2022/10/14 00:28:12;;;;;;;0.00;0.00;;;;;;;;;;1740964;28;20286;-69
2022/10/14 00:29:06;;;;;;;0.00;0.00;;;;;;;;;;1740436;28;20214;-69
2022/10/14 00:29:57;;;;;;;0.00;0.00;;;;;;;;;;1740763;28;20289;-69
2022/10/14 00:30:55;;;;;;;0.00;0.00;;;;;;;;;;1740480;28;20294;-69
2022/10/14 00:31:46;;;;;;;0.00;0.00;;;;;;;;;;1740628;28;20290;-69
2022/10/14 00:32:38;;;;;;;0.00;0.00;;;;;;;;;;1740715;28;20234;-69
2022/10/14 00:33:29;;;;;;;0.00;0.00;;;;;;;;;;1740474;28;20945;-69
2022/10/14 00:34:21;;;;;;;0.00;0.00;;;;;;;;;;1740859;28;20222;-69
2022/10/14 00:35:13;;;;;;;0.00;0.00;;;;;;;;;;1740703;28;20245;-69
2022/10/14 00:36:06;;;;;;;0.00;0.00;;;;;;;;;;1739634;28;20203;-69
2022/10/14 00:36:57;;;;;;;0.00;0.00;;;;;;;;;;1737648;28;20211;-69
2022/10/14 00:37:49;;;;;;;0.00;0.00;;;;;;;;;;1734461;28;20199;-69
2022/10/14 00:38:40;;;;;;;0.00;0.00;;;;;;;;;;1737408;28;20242;-69
2022/10/14 00:39:32;;;;;;;0.00;0.00;;;;;;;;;;1737552;28;20210;-69
2022/10/14 00:40:23;;;;;;;0.00;0.00;;;;;;;;;;1744178;28;20234;-69
2022/10/14 00:41:18;;;;;;;0.00;0.00;;;;;;;;;;1747500;28;20213;-69
2022/10/14 00:42:12;;;;;;;0.00;0.00;;;;;;;;;;1746923;28;20256;-69
2022/10/14 00:43:04;;;;;;;0.00;0.00;;;;;;;;;;1745586;28;20202;-69
2022/10/14 00:43:57;;;;;;;0.00;0.00;;;;;;;;;;1738552;28;20693;-69
2022/10/14 00:45:00;;;;;;;0.00;0.00;;;;;;;;;;1740318;28;20209;-69
2022/10/14 00:45:51;;;;;;;0.00;0.00;;;;;;;;;;1741014;28;20610;-69
2022/10/14 00:46:44;;;;;;;0.00;0.00;;;;;;;;;;1740037;28;20199;-69
2022/10/14 00:47:35;;;;;;;0.00;0.00;;;;;;;;;;1740643;28;20462;-69
2022/10/14 00:48:27;;;;;;;0.00;0.00;;;;;;;;;;1740401;28;20203;-69
2022/10/14 00:49:20;;;;;;;0.00;0.00;;;;;;;;;;1740688;28;20238;-69
2022/10/14 00:50:13;;;;;;;0.00;0.00;;;;;;;;;;1740847;28;20516;-69
2022/10/14 00:51:05;;;;;;;0.00;0.00;;;;;;;;;;1740468;28;20250;-69
2022/10/14 00:51:59;;;;;;;0.00;0.00;;;;;;;;;;1739959;28;20403;-69
2022/10/14 00:52:50;;;;;;;0.00;0.00;;;;;;;;;;1740400;28;20199;-69
2022/10/14 00:53:43;;;;;;;0.00;0.00;;;;;;;;;;1740312;28;20207;-70
2022/10/14 00:54:36;;;;;;;0.00;0.00;;;;;;;;;;1740203;28;20269;-69
2022/10/14 00:55:28;;;;;;;0.00;0.00;;;;;;;;;;1740717;28;20194;-69
2022/10/14 00:56:22;;;;;;;0.00;0.00;;;;;;;;;;1740537;28;20553;-69
2022/10/14 00:57:15;;;;;;;0.00;0.00;;;;;;;;;;1740045;28;20728;-69
2022/10/14 00:58:06;;;;;;;0.00;0.00;;;;;;;;;;1740668;28;20243;-69
2022/10/14 00:58:58;;;;;;;0.00;0.00;;;;;;;;;;1740250;28;20548;-69
2022/10/14 00:59:50;;;;;;;0.00;0.00;;;;;;;;;;1740555;28;20241;-69
2022/10/14 01:00:42;;;;;;;0.00;0.00;;;;;;;;;;1739864;28;20203;-69
2022/10/14 01:01:33;;;;;;;0.00;0.00;;;;;;;;;;1740487;28;20286;-70
2022/10/14 01:02:25;;;;;;;0.00;0.00;;;;;;;;;;1740093;28;20245;-70
2022/10/14 01:03:18;;;;;;;0.00;0.00;;;;;;;;;;1740251;28;20214;-70
2022/10/14 01:04:10;;;;;;;0.00;0.00;;;;;;;;;;1740307;28;20237;-70
2022/10/14 01:05:03;;;;;;;0.00;0.00;;;;;;;;;;1740276;28;20245;-70
2022/10/14 01:05:59;;;;;;;0.00;0.00;;;;;;;;;;1740422;28;20241;-70
2022/10/14 01:06:54;;;;;;;0.00;0.00;;;;;;;;;;1740508;28;20621;-70
2022/10/14 01:07:50;;;;;;;0.10;0.10;;;;;;;;;;1740457;28;20229;-70
2022/10/14 01:08:44;;;;;;;0.00;0.00;;;;;;;;;;1740157;28;20664;-70
2022/10/14 01:09:40;;;;;;;0.00;0.00;;;;;;;;;;1740281;28;20722;-70
2022/10/14 01:10:35;;;;;;;0.00;0.00;;;;;;;;;;1740672;28;20715;-70
2022/10/14 01:11:31;;;;;;;0.00;0.00;;;;;;;;;;1740421;28;20210;-69
2022/10/14 01:12:26;;;;;;;0.00;0.00;;;;;;;;;;1739995;28;20195;-69
2022/10/14 01:13:23;;;;;;;0.00;0.00;;;;;;;;;;1740382;28;20218;-69
2022/10/14 01:14:18;;;;;;;0.00;0.00;;;;;;;;;;1740378;28;20199;-70
2022/10/14 01:15:13;;;;;;;0.00;0.00;;;;;;;;;;1740685;28;20183;-69
2022/10/14 01:16:10;;;;;;;0.00;0.00;;;;;;;;;;1740375;28;20203;-70
2022/10/14 01:17:05;;;;;;;0.00;0.00;;;;;;;;;;1740172;28;20250;-70
2022/10/14 01:18:02;;;;;;;0.00;0.00;;;;;;;;;;1740527;28;20199;-70
2022/10/14 01:18:59;;;;;;;0.00;0.00;;;;;;;;;;1739883;28;20253;-70
2022/10/14 01:20:06;;;;;;;0.00;0.00;;;;;;;;;;1740630;28;20203;-70
2022/10/14 01:21:04;;;;;;;0.00;0.00;;;;;;;;;;1740292;28;20243;-70
2022/10/14 01:22:01;;;;;;;0.00;0.00;;;;;;;;;;1739907;28;20187;-70
2022/10/14 01:22:58;;;;;;;0.00;0.00;;;;;;;;;;1740467;28;20268;-70
2022/10/14 01:24:00;;;;;;;0.00;0.00;;;;;;;;;;1740390;28;20278;-70
2022/10/14 01:25:00;;;;;;;0.00;0.00;;;;;;;;;;1740403;28;20404;-70
2022/10/14 01:25:55;;;;;;;0.00;0.00;;;;;;;;;;1740803;28;20215;-70
2022/10/14 01:27:02;;;;;;;0.00;0.00;;;;;;;;;;1740169;28;20207;-70
2022/10/14 01:28:10;;;;;;;0.00;0.00;;;;;;;;;;1740390;28;20579;-70
2022/10/14 01:29:11;;;;;;;0.00;0.00;;;;;;;;;;1740009;28;20222;-70
2022/10/14 01:30:09;;;;;;;0.00;0.00;;;;;;;;;;1740082;28;20256;-70
2022/10/14 01:31:02;;;;;;;0.00;0.00;;;;;;;;;;1740215;28;20226;-70
2022/10/14 01:31:58;;;;;;;0.00;0.00;;;;;;;;;;1739923;28;20209;-70
2022/10/14 01:33:01;;;;;;;0.00;0.00;;;;;;;;;;1740733;28;20310;-70
2022/10/14 01:33:56;;;;;;;0.00;0.00;;;;;;;;;;1740389;28;20191;-70
2022/10/14 01:34:51;;;;;;;0.00;0.00;;;;;;;;;;1740458;28;20665;-70
2022/10/14 01:35:46;;;;;;;0.00;0.00;;;;;;;;;;1740266;28;20329;-70
2022/10/14 01:36:42;;;;;;;0.00;0.00;;;;;;;;;;1740370;28;20234;-70
2022/10/14 01:37:37;;;;;;;0.00;0.00;;;;;;;;;;1740203;28;20302;-69
2022/10/14 01:38:30;;;;;;;0.00;0.00;;;;;;;;;;1740160;28;20214;-69
2022/10/14 01:39:25;;;;;;;0.00;0.00;;;;;;;;;;1739944;28;20219;-69
2022/10/14 01:40:21;;;;;;;0.00;0.00;;;;;;;;;;1740293;28;20245;-69
2022/10/14 01:41:17;;;;;;;0.00;0.00;;;;;;;;;;1740342;28;20195;-69
2022/10/14 01:42:10;;;;;;;0.00;0.00;;;;;;;;;;1739860;28;20237;-69
2022/10/14 01:43:04;;;;;;;0.00;0.00;;;;;;;;;;1740300;28;20221;-69
2022/10/14 01:43:57;;;;;;;0.00;0.00;;;;;;;;;;1740113;28;20586;-69
2022/10/14 01:44:50;;;;;;;0.00;0.00;;;;;;;;;;1740415;28;20195;-69
2022/10/14 01:45:44;;;;;;;0.00;0.00;;;;;;;;;;1739981;28;20203;-69
2022/10/14 01:46:37;;;;;;;0.00;0.00;;;;;;;;;;1740400;28;20222;-70
2022/10/14 01:47:31;;;;;;;0.00;0.00;;;;;;;;;;1739983;28;20199;-70
2022/10/14 01:48:24;;;;;;;0.00;0.00;;;;;;;;;;1740170;28;20763;-70
2022/10/14 01:49:17;;;;;;;0.00;0.00;;;;;;;;;;1740408;28;20207;-70
2022/10/14 01:50:10;;;;;;;0.00;0.00;;;;;;;;;;1740208;28;20320;-70
2022/10/14 01:51:05;;;;;;;0.00;0.00;;;;;;;;;;1739948;28;20225;-70
2022/10/14 01:51:59;;;;;;;0.00;0.00;;;;;;;;;;1741763;28;20206;-70
2022/10/14 01:52:52;;;;;;;0.00;0.00;;;;;;;;;;1747244;28;20339;-70
2022/10/14 01:53:48;;;;;;;0.00;0.00;;;;;;;;;;1746857;28;20666;-70
2022/10/14 01:54:42;;;;;;;0.00;0.00;;;;;;;;;;1746827;28;20884;-70
2022/10/14 01:55:37;;;;;;;0.00;0.00;;;;;;;;;;1747289;28;20667;-70
2022/10/14 01:56:32;;;;;;;0.00;0.00;;;;;;;;;;1746688;28;20263;-70
2022/10/14 01:57:24;;;;;;;0.00;0.00;;;;;;;;;;1746893;28;20244;-70
2022/10/14 01:58:17;;;;;;;0.00;0.00;;;;;;;;;;1747076;28;20213;-70
2022/10/14 01:59:10;;;;;;;0.00;0.00;;;;;;;;;;1746699;28;20248;-70
2022/10/14 02:00:04;;;;;;;0.00;0.00;;;;;;;;;;1746759;28;20516;-70
2022/10/14 02:00:56;;;;;;;0.00;0.00;;;;;;;;;;1747040;28;20245;-70
2022/10/14 02:01:48;;;;;;;0.00;0.00;;;;;;;;;;1746473;28;20209;-70
2022/10/14 02:02:40;;;;;;;0.00;0.00;;;;;;;;;;1746701;28;20230;-70
2022/10/14 02:03:39;;;;;;;0.00;0.00;;;;;;;;;;1746905;28;20229;-70
2022/10/14 02:04:30;;;;;;;0.00;0.00;;;;;;;;;;1747007;28;20240;-70
2022/10/14 02:05:23;;;;;;;0.00;0.00;;;;;;;;;;1747098;28;20413;-70
2022/10/14 02:06:17;;;;;;;0.00;0.00;;;;;;;;;;1747019;28;20726;-70
2022/10/14 02:07:13;;;;;;;0.00;0.00;;;;;;;;;;1746595;28;20198;-70
2022/10/14 02:08:10;;;;;;;0.00;0.00;;;;;;;;;;1747153;28;20256;-70
2022/10/14 02:09:07;;;;;;;0.00;0.00;;;;;;;;;;1746610;28;20213;-70
2022/10/14 02:10:03;;;;;;;0.00;0.00;;;;;;;;;;1747160;28;20358;-70
2022/10/14 02:11:01;;;;;;;0.00;0.00;;;;;;;;;;1739840;28;20207;-69
2022/10/14 02:11:57;;;;;;;0.00;0.00;;;;;;;;;;1739740;28;20187;-69
2022/10/14 02:12:55;;;;;;;0.00;0.00;;;;;;;;;;1739642;28;20573;-69
2022/10/14 02:13:57;;;;;;;0.00;0.00;;;;;;;;;;1739831;28;20650;-69
2022/10/14 02:14:53;;;;;;;0.00;0.00;;;;;;;;;;1739802;28;20395;-69
2022/10/14 02:15:49;;;;;;;0.00;0.00;;;;;;;;;;1740108;28;20278;-69
2022/10/14 02:16:48;;;;;;;0.00;0.00;;;;;;;;;;1739605;28;20199;-70
2022/10/14 02:17:43;;;;;;;0.00;0.00;;;;;;;;;;1739742;28;20199;-70
2022/10/14 02:18:37;;;;;;;0.00;0.00;;;;;;;;;;1739719;28;20561;-70
2022/10/14 02:19:32;;;;;;;0.00;0.00;;;;;;;;;;1739919;28;20202;-70
2022/10/14 02:20:25;;;;;;;0.00;0.00;;;;;;;;;;1740055;28;20249;-70
2022/10/14 02:21:21;;;;;;;0.00;0.00;;;;;;;;;;1739909;28;20249;-70
2022/10/14 02:22:16;;;;;;;0.00;0.00;;;;;;;;;;1739443;28;20203;-70
2022/10/14 02:23:10;;;;;;;0.00;0.00;;;;;;;;;;1739754;28;20305;-70
2022/10/14 02:24:04;;;;;;;0.00;0.00;;;;;;;;;;1739682;28;20445;-70
2022/10/14 02:24:57;;;;;;;0.00;0.00;;;;;;;;;;1739929;28;20230;-70
2022/10/14 02:25:50;;;;;;;0.00;0.00;;;;;;;;;;1740064;28;20199;-70
2022/10/14 02:26:42;;;;;;;0.00;0.00;;;;;;;;;;1739856;28;20199;-70
2022/10/14 02:27:35;;;;;;;0.00;0.00;;;;;;;;;;1739761;28;20314;-70
2022/10/14 02:28:27;;;;;;;0.00;0.00;;;;;;;;;;1739612;28;20217;-70
2022/10/14 02:29:20;;;;;;;0.00;0.00;;;;;;;;;;1739607;28;20245;-70
2022/10/14 02:30:12;;;;;;;0.00;0.00;;;;;;;;;;1741353;28;20199;-70
2022/10/14 02:31:06;;;;;;;0.00;0.00;;;;;;;;;;1746804;28;20711;-70
2022/10/14 02:31:58;;;;;;;0.00;0.00;;;;;;;;;;1746404;28;20260;-70
2022/10/14 02:32:51;;;;;;;0.00;0.00;;;;;;;;;;1746998;28;20396;-70
2022/10/14 02:33:44;;;;;;;0.00;0.00;;;;;;;;;;1746166;28;20236;-70
2022/10/14 02:34:37;;;;;;;0.00;0.00;;;;;;;;;;1747031;28;20693;-70
2022/10/14 02:35:30;;;;;;;0.00;0.00;;;;;;;;;;1746727;28;20498;-70
2022/10/14 02:36:23;;;;;;;0.00;0.00;;;;;;;;;;1746926;28;20267;-70
2022/10/14 02:37:16;;;;;;;0.00;0.00;;;;;;;;;;1746466;28;20521;-70
2022/10/14 02:38:09;;;;;;;0.00;0.00;;;;;;;;;;1746936;28;20571;-70
2022/10/14 02:39:00;;;;;;;0.00;0.00;;;;;;;;;;1746250;28;20249;-70
2022/10/14 02:39:54;;;;;;;0.00;0.00;;;;;;;;;;1746630;28;20230;-70
2022/10/14 02:40:47;;;;;;;0.00;0.00;;;;;;;;;;1746858;28;20203;-70
2022/10/14 02:41:39;;;;;;;0.00;0.00;;;;;;;;;;1746682;28;20289;-70
2022/10/14 02:42:30;;;;;;;0.00;0.00;;;;;;;;;;1746174;28;20546;-70
2022/10/14 02:43:22;;;;;;;0.00;0.00;;;;;;;;;;1746635;28;20697;-70
2022/10/14 02:44:13;;;;;;;0.00;0.00;;;;;;;;;;1746388;28;20269;-70
2022/10/14 02:45:06;;;;;;;0.00;0.00;;;;;;;;;;1746960;28;20630;-70
2022/10/14 02:45:58;;;;;;;0.00;0.00;;;;;;;;;;1746543;28;20677;-69
2022/10/14 02:46:50;;;;;;;0.00;0.00;;;;;;;;;;1746658;28;20198;-69
2022/10/14 02:47:43;;;;;;;0.00;0.00;;;;;;;;;;1746541;28;20297;-69
2022/10/14 02:48:34;;;;;;;0.00;0.00;;;;;;;;;;1746452;28;20203;-69
2022/10/14 02:49:26;;;;;;;0.00;0.00;;;;;;;;;;1746741;28;20205;-69
2022/10/14 02:50:18;;;;;;;0.00;0.00;;;;;;;;;;1744588;28;20252;-69
2022/10/14 02:51:10;;;;;;;0.00;0.00;;;;;;;;;;1739863;28;20203;-70
2022/10/14 02:52:01;;;;;;;0.00;0.00;;;;;;;;;;1738979;28;20354;-70
2022/10/14 02:52:53;;;;;;;0.00;0.00;;;;;;;;;;1739869;28;20659;-70
2022/10/14 02:53:44;;;;;;;0.00;0.00;;;;;;;;;;1739531;28;20819;-70
2022/10/14 02:54:36;;;;;;;0.00;0.00;;;;;;;;;;1739588;28;20285;-70
2022/10/14 02:55:27;;;;;;;0.00;0.00;;;;;;;;;;1739890;28;20256;-70
2022/10/14 02:56:19;;;;;;;0.00;0.00;;;;;;;;;;1739707;28;20206;-70
2022/10/14 02:57:10;;;;;;;0.00;0.00;;;;;;;;;;1739613;28;20290;-70
2022/10/14 02:58:02;;;;;;;0.00;0.00;;;;;;;;;;1739587;28;20202;-70
2022/10/14 02:58:53;;;;;;;0.00;0.00;;;;;;;;;;1739601;28;20301;-70
2022/10/14 02:59:45;;;;;;;0.00;0.00;;;;;;;;;;1739917;28;20655;-70
2022/10/14 03:00:36;;;;;;;0.00;0.00;;;;;;;;;;1739588;28;20652;-70
2022/10/14 03:01:28;;;;;;;0.00;0.00;;;;;;;;;;1739891;28;20268;-69
2022/10/14 03:02:20;;;;;;;0.00;0.00;;;;;;;;;;1744562;28;20480;-69
2022/10/14 03:03:13;;;;;;;0.00;0.00;;;;;;;;;;1746852;28;20249;-69
2022/10/14 03:04:04;;;;;;;0.00;0.00;;;;;;;;;;1746285;28;20233;-69
2022/10/14 03:04:56;;;;;;;0.00;0.00;;;;;;;;;;1746559;28;20229;-69
2022/10/14 03:05:47;;;;;;;0.00;0.00;;;;;;;;;;1746476;28;20234;-69
2022/10/14 03:06:39;;;;;;;0.00;0.00;;;;;;;;;;1746695;28;20205;-70
2022/10/14 03:07:30;;;;;;;0.00;0.00;;;;;;;;;;1746537;28;20678;-70
2022/10/14 03:08:22;;;;;;;0.00;0.00;;;;;;;;;;1746621;28;20194;-70
2022/10/14 03:09:14;;;;;;;0.00;0.00;;;;;;;;;;1746643;28;20206;-70
2022/10/14 03:10:06;;;;;;;0.00;0.00;;;;;;;;;;1747065;28;20208;-70
2022/10/14 03:10:57;;;;;;;0.00;0.00;;;;;;;;;;1746125;28;20241;-70
2022/10/14 03:11:49;;;;;;;0.00;0.00;;;;;;;;;;1746290;28;20198;-70
2022/10/14 03:12:40;;;;;;;0.00;0.00;;;;;;;;;;1746362;28;21262;-70
2022/10/14 03:13:32;;;;;;;0.00;0.00;;;;;;;;;;1746685;28;20628;-70
2022/10/14 03:14:23;;;;;;;0.00;0.00;;;;;;;;;;1746614;28;20594;-70
2022/10/14 03:15:15;;;;;;;0.00;0.00;;;;;;;;;;1746686;28;20197;-70
2022/10/14 03:16:07;;;;;;;0.00;0.00;;;;;;;;;;1746510;28;20250;-69
2022/10/14 03:16:59;;;;;;;0.00;0.00;;;;;;;;;;1745739;28;20198;-69
2022/10/14 03:17:50;;;;;;;0.00;0.00;;;;;;;;;;1746629;28;20206;-69
2022/10/14 03:18:44;;;;;;;0.00;0.00;;;;;;;;;;1746303;28;20255;-69
2022/10/14 03:19:35;;;;;;;0.00;0.00;;;;;;;;;;1746697;28;20734;-69
2022/10/14 03:20:27;;;;;;;0.00;0.00;;;;;;;;;;1746598;28;20261;-69
2022/10/14 03:21:18;;;;;;;0.00;0.00;;;;;;;;;;1746502;28;20249;-69
2022/10/14 03:22:10;;;;;;;0.00;0.00;;;;;;;;;;1745811;28;20309;-69
2022/10/14 03:23:01;;;;;;;0.00;0.00;;;;;;;;;;1746444;28;20205;-69
2022/10/14 03:23:53;;;;;;;0.00;0.00;;;;;;;;;;1746091;28;20264;-69
2022/10/14 03:24:44;;;;;;;0.00;0.00;;;;;;;;;;1746425;28;20230;-69
2022/10/14 03:25:36;;;;;;;0.00;0.00;;;;;;;;;;1746763;28;20225;-69
2022/10/14 03:26:27;;;;;;;0.00;0.00;;;;;;;;;;1746585;28;20608;-70
2022/10/14 03:27:19;;;;;;;0.00;0.00;;;;;;;;;;1737748;28;20207;-70
2022/10/14 03:28:10;;;;;;;0.00;0.00;;;;;;;;;;1739673;28;20590;-70
2022/10/14 03:29:02;;;;;;;0.00;0.00;;;;;;;;;;1739190;28;20215;-70
2022/10/14 03:29:54;;;;;;;0.00;0.00;;;;;;;;;;1739729;28;20234;-70
2022/10/14 03:30:46;;;;;;;0.00;0.00;;;;;;;;;;1739688;28;20202;-70
2022/10/14 03:31:37;;;;;;;0.00;0.00;;;;;;;;;;1739611;28;20277;-69
2022/10/14 03:32:29;;;;;;;0.00;0.00;;;;;;;;;;1738949;28;20425;-69
2022/10/14 03:33:20;;;;;;;0.00;0.00;;;;;;;;;;1739531;28;20210;-69
2022/10/14 03:34:13;;;;;;;0.00;0.00;;;;;;;;;;1739438;28;20203;-69
2022/10/14 03:35:04;;;;;;;0.00;0.00;;;;;;;;;;1739546;28;20301;-69
2022/10/14 03:35:56;;;;;;;0.00;0.00;;;;;;;;;;1739620;28;20213;-70
2022/10/14 03:36:48;;;;;;;0.00;0.00;;;;;;;;;;1739350;28;20253;-70
2022/10/14 03:37:40;;;;;;;0.00;0.00;;;;;;;;;;1739127;28;20234;-70
2022/10/14 03:38:32;;;;;;;0.00;0.00;;;;;;;;;;1739521;28;20621;-70
2022/10/14 03:39:23;;;;;;;0.00;0.00;;;;;;;;;;1739421;28;20238;-70
2022/10/14 03:40:15;;;;;;;0.00;0.00;;;;;;;;;;1739750;28;20265;-70
2022/10/14 03:41:06;;;;;;;0.00;0.00;;;;;;;;;;1739708;28;20609;-70
2022/10/14 03:41:58;;;;;;;0.00;0.00;;;;;;;;;;1738989;28;20657;-70
2022/10/14 03:42:49;;;;;;;0.00;0.00;;;;;;;;;;1739556;28;20668;-70
2022/10/14 03:43:41;;;;;;;0.00;0.00;;;;;;;;;;1739067;28;20195;-70
2022/10/14 03:44:32;;;;;;;0.00;0.00;;;;;;;;;;1739679;28;20522;-70
2022/10/14 03:45:24;;;;;;;0.00;0.00;;;;;;;;;;1739531;28;20203;-70
2022/10/14 03:46:15;;;;;;;0.00;0.00;;;;;;;;;;1739440;28;20264;-69
2022/10/14 03:47:07;;;;;;;0.00;0.00;;;;;;;;;;1739454;28;20234;-69
2022/10/14 03:47:58;;;;;;;0.00;0.00;;;;;;;;;;1739442;28;20301;-69
2022/10/14 03:48:50;;;;;;;0.00;0.00;;;;;;;;;;1739297;28;20226;-69
2022/10/14 03:49:43;;;;;;;0.00;0.00;;;;;;;;;;1739393;28;20203;-69
2022/10/14 03:50:35;;;;;;;0.00;0.00;;;;;;;;;;1739658;28;20629;-70
2022/10/14 03:51:26;;;;;;;0.00;0.00;;;;;;;;;;1746093;28;20596;-69
2022/10/14 03:52:18;;;;;;;0.00;0.00;;;;;;;;;;1745876;28;20624;-69
2022/10/14 03:53:09;;;;;;;0.00;0.00;;;;;;;;;;1746592;28;20298;-69
2022/10/14 03:54:01;;;;;;;0.00;0.00;;;;;;;;;;1745655;28;20198;-69
2022/10/14 03:54:52;;;;;;;0.00;0.00;;;;;;;;;;1746271;28;20265;-69
2022/10/14 03:55:43;;;;;;;0.00;0.00;;;;;;;;;;1746402;28;20202;-69
2022/10/14 03:56:35;;;;;;;0.00;0.00;;;;;;;;;;1746353;28;20224;-69
2022/10/14 03:57:26;;;;;;;0.00;0.00;;;;;;;;;;1746220;28;20308;-69
2022/10/14 03:58:18;;;;;;;0.00;0.00;;;;;;;;;;1746398;28;20221;-69
2022/10/14 03:59:09;;;;;;;0.00;0.00;;;;;;;;;;1745945;28;20217;-69
2022/10/14 04:00:04;;;;;;;0.00;0.00;;;;;;;;;;1746288;28;20202;-69
2022/10/14 04:00:55;;;;;;;0.00;0.00;;;;;;;;;;1746313;28;20600;-70
2022/10/14 04:01:47;;;;;;;0.00;0.00;;;;;;;;;;1746337;28;20198;-70
2022/10/14 04:02:38;;;;;;;0.00;0.00;;;;;;;;;;1746300;28;20285;-70
2022/10/14 04:03:30;;;;;;;0.00;0.00;;;;;;;;;;1746398;28;20202;-70
2022/10/14 04:04:22;;;;;;;0.00;0.00;;;;;;;;;;1746018;28;20248;-70
2022/10/14 04:05:15;;;;;;;0.00;0.00;;;;;;;;;;1746485;28;20207;-70
2022/10/14 04:06:06;;;;;;;0.00;0.00;;;;;;;;;;1746596;28;20245;-69
2022/10/14 04:06:58;;;;;;;0.00;0.00;;;;;;;;;;1746186;28;20264;-69
2022/10/14 04:07:49;;;;;;;0.00;0.00;;;;;;;;;;1746689;28;20344;-69
2022/10/14 04:08:41;;;;;;;0.00;0.00;;;;;;;;;;1743367;28;20610;-69
2022/10/14 04:09:32;;;;;;;0.00;0.00;;;;;;;;;;1739540;28;20550;-69
2022/10/14 04:10:24;;;;;;;0.00;0.00;;;;;;;;;;1739529;28;20226;-69
2022/10/14 04:11:16;;;;;;;0.00;0.00;;;;;;;;;;1739676;28;20253;-69
2022/10/14 04:12:08;;;;;;;0.00;0.00;;;;;;;;;;1739202;28;20203;-69
2022/10/14 04:12:59;;;;;;;0.00;0.00;;;;;;;;;;1739410;28;20215;-69
2022/10/14 04:13:51;;;;;;;0.00;0.00;;;;;;;;;;1739321;28;20252;-69
2022/10/14 04:14:42;;;;;;;0.00;0.00;;;;;;;;;;1739319;28;20260;-69
2022/10/14 04:15:35;;;;;;;0.00;0.00;;;;;;;;;;1739398;28;20203;-69
2022/10/14 04:16:26;;;;;;;0.00;0.00;;;;;;;;;;1739116;28;20246;-69
2022/10/14 04:17:18;;;;;;;0.00;0.00;;;;;;;;;;1739427;28;20211;-69
2022/10/14 04:18:10;;;;;;;0.00;0.00;;;;;;;;;;1739652;28;20230;-69
2022/10/14 04:19:02;;;;;;;0.00;0.00;;;;;;;;;;1744385;28;20802;-69
2022/10/14 04:19:54;;;;;;;0.00;0.00;;;;;;;;;;1746727;28;20758;-69
2022/10/14 04:20:47;;;;;;;0.00;0.00;;;;;;;;;;1746187;28;21070;-69
2022/10/14 04:21:38;;;;;;;0.00;0.00;;;;;;;;;;1746594;28;20206;-70
2022/10/14 04:22:32;;;;;;;0.00;0.00;;;;;;;;;;1746013;28;20199;-70
2022/10/14 04:23:23;;;;;;;0.00;0.00;;;;;;;;;;1746528;28;20313;-70
2022/10/14 04:24:15;;;;;;;0.00;0.00;;;;;;;;;;1746492;28;20229;-70
2022/10/14 04:25:07;;;;;;;0.00;0.00;;;;;;;;;;1746419;28;20206;-70
2022/10/14 04:25:59;;;;;;;0.00;0.00;;;;;;;;;;1746191;28;20594;-70
2022/10/14 04:26:51;;;;;;;0.00;0.00;;;;;;;;;;1741802;28;20716;-70
2022/10/14 04:27:43;;;;;;;0.00;0.00;;;;;;;;;;1739455;28;20306;-70
2022/10/14 04:28:34;;;;;;;0.00;0.00;;;;;;;;;;1739308;28;20246;-70
2022/10/14 04:29:26;;;;;;;0.00;0.00;;;;;;;;;;1739500;28;20213;-70
2022/10/14 04:30:17;;;;;;;0.00;0.00;;;;;;;;;;1739669;28;20249;-70
2022/10/14 04:31:10;;;;;;;0.00;0.00;;;;;;;;;;1739419;28;20209;-70
2022/10/14 04:32:01;;;;;;;0.00;0.00;;;;;;;;;;1739430;28;20269;-69
2022/10/14 04:32:53;;;;;;;0.00;0.00;;;;;;;;;;1739892;28;20203;-69
2022/10/14 04:33:44;;;;;;;0.00;0.00;;;;;;;;;;1739245;28;20285;-69
2022/10/14 04:34:36;;;;;;;0.00;0.00;;;;;;;;;;1739613;28;20237;-69
2022/10/14 04:35:27;;;;;;;0.00;0.00;;;;;;;;;;1739246;28;20195;-69
2022/10/14 04:36:20;;;;;;;0.00;0.00;;;;;;;;;;1740450;28;20207;-70
2022/10/14 04:37:12;;;;;;;0.00;0.00;;;;;;;;;;1740057;28;20203;-70
2022/10/14 04:38:04;;;;;;;0.00;0.00;;;;;;;;;;1740643;28;20289;-70
2022/10/14 04:38:55;;;;;;;0.00;0.00;;;;;;;;;;1740477;28;20253;-70
2022/10/14 04:39:47;;;;;;;0.00;0.00;;;;;;;;;;1740719;28;20195;-70
2022/10/14 04:40:39;;;;;;;0.00;0.00;;;;;;;;;;1740700;28;20292;-70
2022/10/14 04:41:31;;;;;;;0.00;0.00;;;;;;;;;;1740633;28;20199;-69
2022/10/14 04:42:22;;;;;;;0.00;0.00;;;;;;;;;;1739890;28;20246;-70
2022/10/14 04:43:14;;;;;;;0.00;0.00;;;;;;;;;;1740859;28;20202;-69
2022/10/14 04:44:05;;;;;;;0.00;0.00;;;;;;;;;;1740188;28;20199;-69
2022/10/14 04:44:57;;;;;;;0.00;0.00;;;;;;;;;;1740828;28;20699;-69
2022/10/14 04:45:48;;;;;;;0.00;0.00;;;;;;;;;;1740801;28;20229;-69
2022/10/14 04:46:40;;;;;;;0.00;0.00;;;;;;;;;;1740886;28;20203;-70
2022/10/14 04:47:31;;;;;;;0.00;0.00;;;;;;;;;;1740135;28;20222;-70
2022/10/14 04:48:23;;;;;;;0.00;0.00;;;;;;;;;;1740667;28;20585;-70
2022/10/14 04:49:15;;;;;;;0.00;0.00;;;;;;;;;;1740640;28;20306;-70
2022/10/14 04:50:06;;;;;;;0.00;0.00;;;;;;;;;;1740647;28;20198;-70
2022/10/14 04:50:58;;;;;;;0.00;0.00;;;;;;;;;;1740721;28;20207;-70
2022/10/14 04:51:51;;;;;;;0.00;0.00;;;;;;;;;;1739854;28;20693;-70
2022/10/14 04:52:43;;;;;;;0.00;0.00;;;;;;;;;;1740124;28;20198;-70
2022/10/14 04:53:34;;;;;;;0.00;0.00;;;;;;;;;;1740447;28;20369;-70
2022/10/14 04:54:26;;;;;;;0.00;0.00;;;;;;;;;;1739866;28;20203;-70
2022/10/14 04:55:17;;;;;;;0.00;0.00;;;;;;;;;;1740745;28;20238;-70
2022/10/14 04:56:09;;;;;;;0.00;0.00;;;;;;;;;;1740555;28;20210;-69
2022/10/14 04:57:01;;;;;;;0.00;0.00;;;;;;;;;;1740395;28;20667;-69
2022/10/14 04:57:53;;;;;;;0.00;0.00;;;;;;;;;;1740223;28;20203;-69
2022/10/14 04:58:44;;;;;;;0.00;0.00;;;;;;;;;;1740360;28;20298;-69
2022/10/14 04:59:36;;;;;;;0.00;0.00;;;;;;;;;;1740800;28;20237;-69
2022/10/14 05:00:27;;;;;;;0.00;0.00;;;;;;;;;;1738358;28;20241;-69
2022/10/14 05:01:19;;;;;;;0.00;0.00;;;;;;;;;;1740705;28;20207;-69
2022/10/14 05:02:10;;;;;;;0.00;0.00;;;;;;;;;;1740058;28;20203;-69
2022/10/14 05:03:02;;;;;;;0.00;0.00;;;;;;;;;;1740298;28;20199;-70
2022/10/14 05:03:54;;;;;;;0.00;0.00;;;;;;;;;;1740128;28;20262;-69
2022/10/14 05:04:46;;;;;;;0.00;0.00;;;;;;;;;;1740451;28;20203;-69
2022/10/14 05:05:37;;;;;;;0.00;0.00;;;;;;;;;;1740623;28;20285;-69
2022/10/14 05:06:29;;;;;;;0.00;0.00;;;;;;;;;;1740429;28;20545;-70
2022/10/14 05:07:22;;;;;;;0.00;0.00;;;;;;;;;;1740218;28;20306;-70
2022/10/14 05:08:14;;;;;;;0.00;0.00;;;;;;;;;;1740654;28;20246;-70
2022/10/14 05:09:05;;;;;;;0.00;0.00;;;;;;;;;;1739696;28;20336;-70
2022/10/14 05:09:57;;;;;;;0.00;0.00;;;;;;;;;;1740749;28;20199;-70
2022/10/14 05:10:48;;;;;;;0.00;0.00;;;;;;;;;;1740381;28;20613;-70
2022/10/14 05:11:40;;;;;;;0.00;0.00;;;;;;;;;;1740577;28;20199;-69
2022/10/14 05:12:32;;;;;;;0.00;0.00;;;;;;;;;;1739722;28;20203;-69
2022/10/14 05:13:24;;;;;;;0.08;0.08;;;;;;;;;;1740143;28;20668;-69
2022/10/14 05:14:15;;;;;;;0.00;0.00;;;;;;;;;;1739121;28;20699;-69
2022/10/14 05:15:07;;;;;;;0.00;0.00;;;;;;;;;;1740540;28;20222;-69
2022/10/14 05:15:58;;;;;;;0.00;0.00;;;;;;;;;;1740437;28;20206;-70
2022/10/14 05:16:50;;;;;;;0.00;0.00;;;;;;;;;;1739843;28;20203;-70